createdAt,value
2018-03-30T00:00:01.379Z,0
2018-03-30T00:00:41.594Z,0
2018-03-30T00:01:21.954Z,0
2018-03-30T00:02:02.298Z,0
2018-03-30T00:02:42.715Z,0
2018-03-30T00:03:23.136Z,0
2018-03-30T00:04:03.544Z,0
2018-03-30T00:04:45.413Z,0
2018-03-30T00:05:25.835Z,0
2018-03-30T00:06:06.201Z,0
2018-03-30T00:06:46.592Z,0
2018-03-30T00:07:27.009Z,0
2018-03-30T00:08:07.389Z,0
2018-03-30T00:08:49.131Z,0
2018-03-30T00:09:29.541Z,0
2018-03-30T00:10:09.938Z,0
2018-03-30T00:10:50.331Z,0
2018-03-30T00:11:32.281Z,0
2018-03-30T00:12:12.602Z,0
2018-03-30T00:12:53.018Z,0
2018-03-30T00:13:33.437Z,0
2018-03-30T00:17:21.000Z,0
2018-03-30T00:18:01.408Z,0
2018-03-30T00:18:41.793Z,0
2018-03-30T00:19:22.199Z,0
2018-03-30T00:20:02.553Z,0
2018-03-30T00:20:42.922Z,0
2018-03-30T00:21:23.319Z,0
2018-03-30T00:22:03.736Z,0
2018-03-30T00:22:44.120Z,0
2018-03-30T00:23:24.492Z,0
2018-03-30T00:24:04.910Z,0
2018-03-30T00:24:45.268Z,0
2018-03-30T00:25:25.838Z,0
2018-03-30T00:26:06.236Z,0
2018-03-30T00:26:46.612Z,0
2018-03-30T00:27:27.017Z,0
2018-03-30T00:28:07.448Z,0
2018-03-30T00:28:47.829Z,0
2018-03-30T00:29:28.268Z,0
2018-03-30T00:30:08.570Z,0
2018-03-30T00:30:49.079Z,0
2018-03-30T00:31:29.552Z,0
2018-03-30T00:32:09.994Z,0
2018-03-30T00:32:51.934Z,0
2018-03-30T00:33:32.809Z,0
2018-03-30T00:34:13.305Z,0
2018-03-30T00:34:54.725Z,0
2018-03-30T00:35:35.113Z,0
2018-03-30T00:36:15.538Z,0
2018-03-30T00:36:55.998Z,0
2018-03-30T00:37:36.364Z,0
2018-03-30T00:38:17.306Z,0
2018-03-30T00:38:58.873Z,0
2018-03-30T00:39:39.899Z,0
2018-03-30T00:40:20.627Z,0
2018-03-30T00:41:01.053Z,0
2018-03-30T00:41:44.510Z,0
2018-03-30T00:42:25.223Z,0
2018-03-30T00:43:05.649Z,0
2018-03-30T00:43:45.989Z,0
2018-03-30T00:45:51.467Z,0
2018-03-30T00:46:33.462Z,0
2018-03-30T00:47:13.871Z,0
2018-03-30T00:47:55.001Z,0
2018-03-30T00:48:35.166Z,0
2018-03-30T00:49:15.615Z,0
2018-03-30T00:49:57.935Z,0
2018-03-30T00:50:38.323Z,0
2018-03-30T00:51:19.104Z,0
2018-03-30T00:51:59.659Z,0
2018-03-30T00:52:40.380Z,0
2018-03-30T00:53:20.951Z,0
2018-03-30T00:54:01.416Z,0
2018-03-30T00:54:42.447Z,0
2018-03-30T00:55:23.022Z,0
2018-03-30T00:56:05.438Z,0
2018-03-30T00:56:46.019Z,0
2018-03-30T00:57:26.504Z,0
2018-03-30T00:59:45.021Z,0
2018-03-30T01:00:26.755Z,0
2018-03-30T01:01:07.154Z,0
2018-03-30T01:01:47.558Z,0
2018-03-30T01:02:27.949Z,0
2018-03-30T01:03:08.347Z,0
2018-03-30T01:03:48.775Z,0
2018-03-30T01:04:29.608Z,0
2018-03-30T01:05:09.540Z,0
2018-03-30T01:05:50.267Z,0
2018-03-30T01:06:30.828Z,0
2018-03-30T01:07:11.199Z,0
2018-03-30T01:07:51.635Z,0
2018-03-30T01:08:31.987Z,0
2018-03-30T01:09:12.420Z,0
2018-03-30T01:09:55.409Z,0
2018-03-30T01:10:35.829Z,0
2018-03-30T01:11:16.191Z,0
2018-03-30T01:11:56.587Z,0
2018-03-30T01:12:36.998Z,0
2018-03-30T01:13:17.396Z,0
2018-03-30T01:13:57.912Z,0
2018-03-30T01:14:38.358Z,0
2018-03-30T01:15:18.777Z,0
2018-03-30T01:15:59.179Z,0
2018-03-30T01:16:39.701Z,0
2018-03-30T01:17:20.087Z,0
2018-03-30T01:18:00.472Z,0
2018-03-30T01:18:40.886Z,0
2018-03-30T01:19:21.339Z,0
2018-03-30T01:20:01.736Z,0
2018-03-30T01:20:42.121Z,0
2018-03-30T01:21:22.549Z,0
2018-03-30T01:22:02.943Z,0
2018-03-30T01:22:43.283Z,0
2018-03-30T01:23:23.671Z,0
2018-03-30T01:24:04.089Z,0
2018-03-30T01:24:44.776Z,0
2018-03-30T01:25:25.162Z,0
2018-03-30T01:26:06.071Z,0
2018-03-30T01:26:46.439Z,0
2018-03-30T01:27:26.816Z,0
2018-03-30T01:28:07.310Z,0
2018-03-30T01:28:47.613Z,0
2018-03-30T01:29:28.036Z,0
2018-03-30T01:30:08.400Z,0
2018-03-30T01:30:48.792Z,0
2018-03-30T01:31:29.232Z,0
2018-03-30T01:32:09.679Z,0
2018-03-30T01:32:50.099Z,0
2018-03-30T01:33:30.475Z,0
2018-03-30T01:34:10.857Z,0
2018-03-30T01:34:51.247Z,0
2018-03-30T01:35:31.678Z,0
2018-03-30T01:36:12.274Z,0
2018-03-30T01:36:52.614Z,0
2018-03-30T01:37:33.008Z,0
2018-03-30T01:38:13.405Z,0
2018-03-30T01:38:53.893Z,0
2018-03-30T01:39:34.284Z,0
2018-03-30T01:40:14.661Z,0
2018-03-30T01:40:55.058Z,0
2018-03-30T01:41:35.448Z,0
2018-03-30T01:42:15.850Z,0
2018-03-30T01:42:56.241Z,0
2018-03-30T01:43:36.617Z,0
2018-03-30T01:44:17.053Z,0
2018-03-30T01:44:57.444Z,0
2018-03-30T01:45:37.840Z,0
2018-03-30T01:46:18.201Z,0
2018-03-30T01:46:58.590Z,0
2018-03-30T01:47:38.979Z,0
2018-03-30T01:48:19.343Z,0
2018-03-30T01:48:59.735Z,0
2018-03-30T01:49:40.167Z,0
2018-03-30T01:50:20.549Z,0
2018-03-30T01:51:00.915Z,0
2018-03-30T01:51:41.282Z,0
2018-03-30T01:52:21.694Z,0
2018-03-30T01:53:02.079Z,0
2018-03-30T01:53:42.496Z,0
2018-03-30T01:54:22.898Z,0
2018-03-30T01:55:03.354Z,0
2018-03-30T01:55:43.682Z,0
2018-03-30T01:56:24.089Z,0
2018-03-30T01:57:04.461Z,0
2018-03-30T01:57:44.894Z,0
2018-03-30T01:58:25.328Z,0
2018-03-30T01:59:05.709Z,0
2018-03-30T01:59:46.065Z,0
2018-03-30T02:00:26.536Z,0
2018-03-30T02:01:06.847Z,0
2018-03-30T02:01:47.250Z,0
2018-03-30T02:02:27.646Z,0
2018-03-30T02:03:08.082Z,0
2018-03-30T02:03:48.460Z,0
2018-03-30T02:04:28.824Z,0
2018-03-30T02:05:09.253Z,0
2018-03-30T02:05:49.606Z,0
2018-03-30T02:06:29.996Z,0
2018-03-30T02:07:10.388Z,0
2018-03-30T02:07:50.798Z,0
2018-03-30T02:08:31.198Z,0
2018-03-30T02:09:11.581Z,0
2018-03-30T02:09:51.967Z,0
2018-03-30T02:10:32.328Z,0
2018-03-30T02:11:12.743Z,0
2018-03-30T02:11:53.162Z,0
2018-03-30T02:12:33.565Z,0
2018-03-30T02:13:13.928Z,0
2018-03-30T02:13:54.402Z,0
2018-03-30T02:14:34.781Z,0
2018-03-30T02:15:15.152Z,0
2018-03-30T02:15:55.565Z,0
2018-03-30T02:16:35.928Z,0
2018-03-30T02:17:16.300Z,0
2018-03-30T02:17:56.696Z,0
2018-03-30T02:18:37.085Z,0
2018-03-30T02:19:17.500Z,0
2018-03-30T02:19:57.897Z,0
2018-03-30T02:20:38.247Z,0
2018-03-30T02:21:18.654Z,0
2018-03-30T02:21:59.049Z,0
2018-03-30T02:22:39.485Z,0
2018-03-30T02:23:19.877Z,0
2018-03-30T02:24:00.215Z,0
2018-03-30T02:24:40.584Z,0
2018-03-30T02:25:21.020Z,0
2018-03-30T02:26:01.404Z,0
2018-03-30T02:26:41.776Z,0
2018-03-30T02:27:22.160Z,0
2018-03-30T02:28:02.545Z,0
2018-03-30T02:28:42.988Z,0
2018-03-30T02:29:23.352Z,0
2018-03-30T02:30:03.747Z,0
2018-03-30T02:30:44.120Z,0
2018-03-30T02:31:24.548Z,0
2018-03-30T02:32:04.899Z,0
2018-03-30T02:32:45.351Z,0
2018-03-30T02:33:26.214Z,0
2018-03-30T02:34:06.568Z,0
2018-03-30T02:34:46.940Z,0
2018-03-30T02:35:27.373Z,0
2018-03-30T02:36:07.731Z,0
2018-03-30T02:36:48.096Z,0
2018-03-30T02:37:28.583Z,0
2018-03-30T02:38:08.938Z,0
2018-03-30T02:38:49.301Z,0
2018-03-30T02:39:29.702Z,0
2018-03-30T02:40:10.065Z,0
2018-03-30T02:40:50.457Z,0
2018-03-30T02:41:30.850Z,0
2018-03-30T02:42:11.273Z,0
2018-03-30T02:42:51.688Z,0
2018-03-30T02:43:32.066Z,0
2018-03-30T02:44:12.459Z,0
2018-03-30T02:44:52.858Z,0
2018-03-30T02:45:33.285Z,0
2018-03-30T02:46:13.653Z,0
2018-03-30T02:46:54.052Z,0
2018-03-30T02:47:34.479Z,0
2018-03-30T02:48:14.834Z,0
2018-03-30T02:48:55.250Z,0
2018-03-30T02:49:35.643Z,0
2018-03-30T02:50:16.059Z,0
2018-03-30T02:50:56.422Z,0
2018-03-30T02:51:36.847Z,0
2018-03-30T02:52:17.277Z,0
2018-03-30T02:52:57.702Z,0
2018-03-30T02:53:38.082Z,0
2018-03-30T02:54:18.467Z,0
2018-03-30T02:54:58.868Z,0
2018-03-30T02:55:39.311Z,0
2018-03-30T02:56:19.648Z,0
2018-03-30T02:57:00.088Z,0
2018-03-30T02:57:40.731Z,0
2018-03-30T02:58:21.219Z,0
2018-03-30T02:59:01.570Z,0
2018-03-30T02:59:41.933Z,0
2018-03-30T03:00:22.309Z,0
2018-03-30T03:01:02.735Z,0
2018-03-30T03:01:43.594Z,0
2018-03-30T03:02:24.013Z,0
2018-03-30T03:03:04.388Z,0
2018-03-30T03:03:45.002Z,0
2018-03-30T03:04:25.358Z,0
2018-03-30T03:05:05.767Z,0
2018-03-30T03:05:46.123Z,0
2018-03-30T03:06:26.539Z,0
2018-03-30T03:07:06.942Z,0
2018-03-30T03:07:47.443Z,0
2018-03-30T03:08:27.830Z,0
2018-03-30T03:09:08.272Z,0
2018-03-30T03:09:48.795Z,0
2018-03-30T03:10:29.118Z,0
2018-03-30T03:11:09.500Z,0
2018-03-30T03:11:49.861Z,0
2018-03-30T03:12:30.268Z,0
2018-03-30T03:13:13.629Z,0
2018-03-30T03:13:54.030Z,0
2018-03-30T03:14:34.383Z,0
2018-03-30T03:15:14.795Z,0
2018-03-30T03:15:55.176Z,0
2018-03-30T03:16:35.581Z,0
2018-03-30T03:17:15.946Z,0
2018-03-30T03:17:56.351Z,0
2018-03-30T03:18:36.714Z,0
2018-03-30T03:19:17.085Z,0
2018-03-30T03:19:57.460Z,0
2018-03-30T03:20:37.841Z,0
2018-03-30T03:21:18.268Z,0
2018-03-30T03:21:58.688Z,0
2018-03-30T03:22:39.041Z,0
2018-03-30T03:23:19.421Z,0
2018-03-30T03:23:59.771Z,0
2018-03-30T03:24:40.184Z,0
2018-03-30T03:25:20.564Z,0
2018-03-30T03:26:00.994Z,0
2018-03-30T03:28:18.292Z,0
2018-03-30T03:28:57.649Z,0
2018-03-30T03:29:38.022Z,0
2018-03-30T03:30:18.431Z,0
2018-03-30T03:30:58.826Z,0
2018-03-30T03:31:39.183Z,0
2018-03-30T03:32:19.586Z,0
2018-03-30T03:32:59.963Z,0
2018-03-30T03:33:40.326Z,0
2018-03-30T03:34:20.732Z,0
2018-03-30T03:35:01.187Z,0
2018-03-30T03:35:41.521Z,0
2018-03-30T03:36:21.925Z,0
2018-03-30T03:37:02.296Z,0
2018-03-30T03:37:42.697Z,0
2018-03-30T03:38:23.064Z,0
2018-03-30T03:39:03.456Z,0
2018-03-30T03:39:43.834Z,0
2018-03-30T03:40:24.226Z,0
2018-03-30T03:41:04.581Z,0
2018-03-30T03:41:44.943Z,0
2018-03-30T03:42:25.360Z,0
2018-03-30T03:43:05.745Z,0
2018-03-30T03:43:46.146Z,0
2018-03-30T03:44:26.579Z,0
2018-03-30T03:45:06.966Z,0
2018-03-30T03:45:47.334Z,0
2018-03-30T03:46:27.753Z,0
2018-03-30T03:47:08.161Z,0
2018-03-30T03:47:48.576Z,0
2018-03-30T03:48:28.992Z,0
2018-03-30T03:49:09.377Z,0
2018-03-30T03:49:49.755Z,0
2018-03-30T03:50:30.131Z,0
2018-03-30T03:51:10.548Z,0
2018-03-30T03:51:50.924Z,0
2018-03-30T03:52:31.335Z,0
2018-03-30T03:53:11.703Z,0
2018-03-30T03:53:52.097Z,0
2018-03-30T03:54:32.492Z,0
2018-03-30T03:55:12.897Z,0
2018-03-30T03:55:53.269Z,0
2018-03-30T03:56:33.660Z,0
2018-03-30T03:57:14.073Z,0
2018-03-30T03:57:54.462Z,0
2018-03-30T03:58:34.857Z,0
2018-03-30T03:59:15.239Z,0
2018-03-30T03:59:55.649Z,0
2018-03-30T04:00:36.042Z,0
2018-03-30T04:01:16.451Z,0
2018-03-30T04:01:56.846Z,0
2018-03-30T04:02:37.209Z,0
2018-03-30T04:03:17.605Z,0
2018-03-30T04:03:57.998Z,0
2018-03-30T04:45:25.940Z,0
2018-03-30T04:46:06.308Z,0
2018-03-30T04:46:46.683Z,0
2018-03-30T04:47:27.114Z,0
2018-03-30T04:48:07.484Z,0
2018-03-30T04:48:47.858Z,0
2018-03-30T04:49:28.278Z,0
2018-03-30T04:50:08.652Z,0
2018-03-30T04:50:49.011Z,0
2018-03-30T04:51:29.397Z,0
2018-03-30T04:52:09.840Z,0
2018-03-30T04:52:50.213Z,0
2018-03-30T04:53:30.548Z,0
2018-03-30T04:54:10.970Z,0
2018-03-30T04:54:51.358Z,0
2018-03-30T04:55:31.763Z,0
2018-03-30T04:56:12.242Z,0
2018-03-30T04:56:52.628Z,0
2018-03-30T04:57:33.065Z,0
2018-03-30T04:58:13.439Z,0
2018-03-30T04:58:53.808Z,0
2018-03-30T04:59:34.264Z,0
2018-03-30T05:00:14.597Z,4
2018-03-30T05:00:54.990Z,4
2018-03-30T05:01:35.398Z,4
2018-03-30T05:02:15.853Z,4
2018-03-30T05:02:56.222Z,4
2018-03-30T05:03:36.571Z,4
2018-03-30T05:04:16.987Z,0
2018-03-30T05:04:57.401Z,0
2018-03-30T05:05:37.799Z,4
2018-03-30T05:06:18.168Z,4
2018-03-30T05:06:58.581Z,4
2018-03-30T05:07:38.963Z,8
2018-03-30T05:08:19.364Z,4
2018-03-30T05:08:59.785Z,4
2018-03-30T05:09:40.108Z,8
2018-03-30T05:10:20.528Z,8
2018-03-30T05:11:00.920Z,8
2018-03-30T05:11:41.336Z,8
2018-03-30T05:12:21.719Z,12
2018-03-30T05:13:02.117Z,8
2018-03-30T05:13:42.497Z,12
2018-03-30T05:14:22.906Z,12
2018-03-30T05:15:03.346Z,16
2018-03-30T05:15:43.704Z,12
2018-03-30T05:16:24.127Z,16
2018-03-30T05:17:04.488Z,16
2018-03-30T05:17:44.905Z,20
2018-03-30T05:18:25.266Z,20
2018-03-30T05:19:05.727Z,20
2018-03-30T05:19:46.125Z,24
2018-03-30T05:20:26.520Z,24
2018-03-30T05:21:06.879Z,28
2018-03-30T05:21:47.270Z,28
2018-03-30T05:22:27.653Z,28
2018-03-30T05:23:08.043Z,36
2018-03-30T05:23:48.405Z,40
2018-03-30T05:24:28.819Z,40
2018-03-30T05:25:09.190Z,44
2018-03-30T05:25:49.593Z,48
2018-03-30T05:26:30.157Z,48
2018-03-30T05:27:10.398Z,48
2018-03-30T05:27:50.823Z,48
2018-03-30T05:28:31.198Z,52
2018-03-30T05:29:11.601Z,52
2018-03-30T05:29:51.955Z,56
2018-03-30T05:30:32.391Z,56
2018-03-30T05:31:12.746Z,60
2018-03-30T05:31:53.195Z,64
2018-03-30T05:32:33.567Z,72
2018-03-30T05:33:14.005Z,76
2018-03-30T05:33:54.440Z,80
2018-03-30T05:34:34.795Z,84
2018-03-30T05:35:15.211Z,92
2018-03-30T05:35:55.587Z,96
2018-03-30T05:36:35.962Z,104
2018-03-30T05:37:16.393Z,112
2018-03-30T05:37:56.771Z,124
2018-03-30T05:38:37.202Z,128
2018-03-30T05:39:17.599Z,132
2018-03-30T05:39:57.964Z,144
2018-03-30T05:40:38.356Z,156
2018-03-30T05:41:18.745Z,164
2018-03-30T05:41:59.151Z,180
2018-03-30T05:42:39.540Z,200
2018-03-30T05:43:19.946Z,232
2018-03-30T05:44:00.349Z,276
2018-03-30T05:44:40.743Z,348
2018-03-30T05:45:21.186Z,380
2018-03-30T05:46:01.593Z,368
2018-03-30T05:46:41.982Z,312
2018-03-30T05:47:22.361Z,272
2018-03-30T05:48:02.784Z,252
2018-03-30T05:48:43.165Z,252
2018-03-30T05:49:23.558Z,252
2018-03-30T05:50:03.956Z,264
2018-03-30T05:50:44.358Z,276
2018-03-30T05:51:24.709Z,292
2018-03-30T05:52:05.113Z,312
2018-03-30T05:52:45.468Z,340
2018-03-30T05:53:25.886Z,372
2018-03-30T05:54:06.339Z,408
2018-03-30T05:54:46.914Z,448
2018-03-30T05:55:27.107Z,492
2018-03-30T05:56:07.455Z,552
2018-03-30T05:56:47.881Z,624
2018-03-30T05:57:28.322Z,692
2018-03-30T05:58:08.697Z,804
2018-03-30T05:58:49.141Z,836
2018-03-30T05:59:29.559Z,876
2018-03-30T06:00:09.889Z,904
2018-03-30T06:00:50.297Z,936
2018-03-30T06:01:30.712Z,968
2018-03-30T06:02:11.111Z,876
2018-03-30T06:02:51.469Z,836
2018-03-30T06:03:31.857Z,812
2018-03-30T06:04:12.242Z,824
2018-03-30T06:04:52.656Z,840
2018-03-30T06:05:33.084Z,880
2018-03-30T06:06:13.525Z,896
2018-03-30T06:06:53.895Z,936
2018-03-30T06:07:34.301Z,964
2018-03-30T06:08:14.677Z,992
2018-03-30T06:08:55.096Z,968
2018-03-30T06:09:35.506Z,856
2018-03-30T06:10:15.923Z,968
2018-03-30T06:10:56.308Z,1068
2018-03-30T06:11:36.693Z,984
2018-03-30T06:12:17.103Z,920
2018-03-30T06:12:57.538Z,924
2018-03-30T06:13:37.873Z,948
2018-03-30T06:14:18.270Z,972
2018-03-30T06:16:37.468Z,1012
2018-03-30T06:17:18.724Z,1044
2018-03-30T06:17:59.089Z,1088
2018-03-30T06:18:39.497Z,1128
2018-03-30T06:19:19.882Z,1164
2018-03-30T06:20:00.245Z,1192
2018-03-30T06:20:40.689Z,1264
2018-03-30T06:21:21.069Z,1288
2018-03-30T06:22:01.499Z,1328
2018-03-30T06:22:41.932Z,1336
2018-03-30T06:23:22.326Z,1372
2018-03-30T06:24:02.759Z,1576
2018-03-30T06:24:43.138Z,1564
2018-03-30T06:25:23.498Z,1624
2018-03-30T06:26:03.855Z,1588
2018-03-30T06:28:37.815Z,1272
2018-03-30T06:29:18.275Z,1228
2018-03-30T06:29:58.654Z,1184
2018-03-30T06:30:39.071Z,1144
2018-03-30T06:31:19.442Z,1108
2018-03-30T06:31:59.835Z,1068
2018-03-30T06:32:40.277Z,1040
2018-03-30T06:33:20.671Z,1016
2018-03-30T06:34:01.091Z,1004
2018-03-30T06:34:41.473Z,1000
2018-03-30T06:35:21.846Z,1008
2018-03-30T06:36:02.242Z,1028
2018-03-30T06:36:42.679Z,1056
2018-03-30T06:37:23.095Z,1080
2018-03-30T06:38:03.505Z,1104
2018-03-30T06:38:43.846Z,1132
2018-03-30T06:39:24.283Z,1168
2018-03-30T06:40:04.674Z,1200
2018-03-30T06:40:45.049Z,1236
2018-03-30T06:41:25.451Z,1296
2018-03-30T06:42:05.873Z,1396
2018-03-30T06:42:46.272Z,1468
2018-03-30T06:43:26.705Z,1540
2018-03-30T06:44:07.079Z,1612
2018-03-30T06:44:47.454Z,1712
2018-03-30T06:45:27.857Z,2072
2018-03-30T06:46:08.292Z,2472
2018-03-30T06:46:48.664Z,2640
2018-03-30T06:47:29.021Z,3560
2018-03-30T06:48:09.514Z,3024
2018-03-30T06:48:49.866Z,3320
2018-03-30T06:49:30.282Z,2432
2018-03-30T06:50:10.677Z,3148
2018-03-30T06:50:51.042Z,2940
2018-03-30T06:51:31.422Z,3388
2018-03-30T06:52:11.803Z,2692
2018-03-30T06:52:52.196Z,2796
2018-03-30T06:53:32.632Z,2444
2018-03-30T06:54:13.041Z,3232
2018-03-30T06:54:53.429Z,2220
2018-03-30T06:55:33.863Z,2312
2018-03-30T06:56:14.203Z,1948
2018-03-30T06:56:54.659Z,1880
2018-03-30T06:57:35.026Z,1820
2018-03-30T06:58:15.414Z,1796
2018-03-30T06:58:55.815Z,1740
2018-03-30T06:59:36.180Z,1684
2018-03-30T07:00:16.562Z,1628
2018-03-30T07:00:56.945Z,1576
2018-03-30T07:01:37.368Z,1548
2018-03-30T07:02:17.779Z,1556
2018-03-30T07:02:58.181Z,1560
2018-03-30T07:03:38.545Z,1540
2018-03-30T07:04:18.951Z,1544
2018-03-30T07:04:59.324Z,1556
2018-03-30T07:05:39.727Z,1532
2018-03-30T07:06:20.138Z,1496
2018-03-30T07:07:00.513Z,1492
2018-03-30T07:07:40.948Z,1488
2018-03-30T07:08:21.310Z,1488
2018-03-30T07:09:01.815Z,1524
2018-03-30T07:09:42.167Z,1540
2018-03-30T07:10:22.524Z,1536
2018-03-30T07:11:02.932Z,1532
2018-03-30T07:11:43.293Z,1532
2018-03-30T07:12:23.698Z,1532
2018-03-30T07:13:04.124Z,1536
2018-03-30T07:13:44.505Z,1516
2018-03-30T07:14:24.946Z,1508
2018-03-30T07:15:05.322Z,1508
2018-03-30T07:15:45.691Z,1452
2018-03-30T07:16:26.098Z,1408
2018-03-30T07:17:06.530Z,1388
2018-03-30T07:17:46.868Z,1380
2018-03-30T07:18:27.266Z,1368
2018-03-30T07:19:07.700Z,1368
2018-03-30T07:19:48.066Z,1404
2018-03-30T07:20:28.429Z,1424
2018-03-30T07:21:08.862Z,1440
2018-03-30T07:21:49.244Z,1456
2018-03-30T07:22:29.669Z,1468
2018-03-30T07:23:10.012Z,1488
2018-03-30T07:23:50.410Z,1496
2018-03-30T07:24:30.800Z,1528
2018-03-30T07:25:11.158Z,1608
2018-03-30T07:25:51.584Z,1644
2018-03-30T07:26:31.983Z,1660
2018-03-30T07:27:12.362Z,1692
2018-03-30T07:27:52.795Z,1704
2018-03-30T07:28:33.235Z,1708
2018-03-30T07:29:13.624Z,1704
2018-03-30T07:29:54.008Z,1720
2018-03-30T07:30:34.431Z,1796
2018-03-30T07:31:14.827Z,1856
2018-03-30T07:31:55.194Z,1872
2018-03-30T07:32:35.629Z,1888
2018-03-30T07:33:16.029Z,2012
2018-03-30T07:33:56.415Z,2212
2018-03-30T07:34:36.809Z,2168
2018-03-30T07:35:17.210Z,2188
2018-03-30T07:35:57.609Z,2344
2018-03-30T07:36:38.034Z,2492
2018-03-30T07:37:18.490Z,2672
2018-03-30T07:37:58.828Z,2796
2018-03-30T07:38:39.290Z,3164
2018-03-30T07:39:19.684Z,3316
2018-03-30T07:39:59.991Z,3328
2018-03-30T07:40:40.436Z,3416
2018-03-30T07:41:20.805Z,3308
2018-03-30T07:42:01.205Z,3400
2018-03-30T07:42:41.614Z,3436
2018-03-30T07:43:22.074Z,3568
2018-03-30T07:44:02.429Z,3540
2018-03-30T07:44:42.838Z,3600
2018-03-30T07:45:23.246Z,3628
2018-03-30T07:46:03.628Z,3604
2018-03-30T07:46:44.026Z,3648
2018-03-30T07:47:24.430Z,3736
2018-03-30T07:48:04.836Z,4196
2018-03-30T07:48:45.190Z,4120
2018-03-30T07:49:25.626Z,4116
2018-03-30T07:51:45.932Z,3784
2018-03-30T07:52:26.923Z,3776
2018-03-30T07:53:07.336Z,4524
2018-03-30T07:53:47.727Z,4444
2018-03-30T07:54:28.156Z,4300
2018-03-30T07:55:08.555Z,4268
2018-03-30T07:55:48.909Z,4100
2018-03-30T07:56:29.310Z,3948
2018-03-30T07:57:09.849Z,3928
2018-03-30T07:57:50.255Z,3800
2018-03-30T07:58:30.649Z,3704
2018-03-30T07:59:11.078Z,3568
2018-03-30T07:59:51.805Z,3500
2018-03-30T08:00:32.308Z,3540
2018-03-30T08:01:12.637Z,3552
2018-03-30T08:01:53.060Z,3544
2018-03-30T08:02:33.513Z,3568
2018-03-30T08:03:13.919Z,3548
2018-03-30T08:03:54.331Z,3532
2018-03-30T08:04:35.065Z,3504
2018-03-30T08:05:15.189Z,3460
2018-03-30T08:05:55.624Z,3444
2018-03-30T08:06:35.974Z,3376
2018-03-30T08:07:16.347Z,3276
2018-03-30T08:07:56.745Z,3228
2018-03-30T08:08:37.180Z,3076
2018-03-30T08:09:17.636Z,2848
2018-03-30T08:09:58.013Z,2952
2018-03-30T08:10:38.392Z,2960
2018-03-30T08:11:18.800Z,3004
2018-03-30T08:11:59.251Z,2972
2018-03-30T08:12:39.760Z,2972
2018-03-30T08:13:20.141Z,2892
2018-03-30T08:14:00.712Z,2984
2018-03-30T08:14:41.136Z,2948
2018-03-30T08:15:21.575Z,2936
2018-03-30T08:16:03.037Z,2880
2018-03-30T08:16:43.417Z,2756
2018-03-30T08:17:23.912Z,2688
2018-03-30T08:18:04.285Z,2500
2018-03-30T08:18:44.673Z,2532
2018-03-30T08:20:44.429Z,2624
2018-03-30T08:21:25.625Z,2576
2018-03-30T08:22:06.045Z,2532
2018-03-30T08:22:47.151Z,2512
2018-03-30T08:23:27.694Z,2564
2018-03-30T08:24:08.074Z,2580
2018-03-30T08:24:49.229Z,2604
2018-03-30T08:25:29.491Z,2596
2018-03-30T08:26:09.874Z,2604
2018-03-30T08:26:50.278Z,2608
2018-03-30T08:27:30.686Z,2640
2018-03-30T08:28:11.637Z,2648
2018-03-30T08:28:52.107Z,2648
2018-03-30T08:29:32.471Z,2628
2018-03-30T08:30:13.079Z,2604
2018-03-30T08:30:53.429Z,2572
2018-03-30T08:31:33.830Z,2564
2018-03-30T08:32:14.210Z,2576
2018-03-30T08:32:54.639Z,2548
2018-03-30T08:33:35.304Z,2492
2018-03-30T08:34:16.091Z,2452
2018-03-30T08:34:56.427Z,2412
2018-03-30T08:35:36.886Z,2412
2018-03-30T08:36:17.435Z,2380
2018-03-30T08:36:58.767Z,2388
2018-03-30T08:37:39.167Z,2340
2018-03-30T08:38:19.656Z,2284
2018-03-30T08:39:00.061Z,2300
2018-03-30T08:39:40.555Z,2364
2018-03-30T08:40:22.323Z,2360
2018-03-30T08:41:02.731Z,2360
2018-03-30T08:41:43.188Z,2416
2018-03-30T08:42:23.749Z,2480
2018-03-30T08:43:04.159Z,2496
2018-03-30T08:43:44.644Z,2492
2018-03-30T08:44:24.956Z,2488
2018-03-30T08:45:05.394Z,2476
2018-03-30T08:45:45.783Z,2456
2018-03-30T08:46:26.168Z,2460
2018-03-30T08:47:06.922Z,2416
2018-03-30T08:47:47.540Z,2404
2018-03-30T08:48:27.881Z,2352
2018-03-30T08:49:08.635Z,2336
2018-03-30T08:49:48.945Z,2284
2018-03-30T08:50:29.413Z,2276
2018-03-30T08:51:10.020Z,2212
2018-03-30T08:51:50.386Z,2220
2018-03-30T08:52:30.880Z,2252
2018-03-30T08:53:11.684Z,2248
2018-03-30T08:53:52.162Z,2244
2018-03-30T08:54:32.940Z,2256
2018-03-30T08:55:13.357Z,2308
2018-03-30T08:55:53.897Z,2340
2018-03-30T08:56:37.583Z,2424
2018-03-30T08:57:17.929Z,2396
2018-03-30T08:57:58.313Z,2368
2018-03-30T08:58:38.756Z,2304
2018-03-30T08:59:19.155Z,2392
2018-03-30T09:00:00.057Z,2380
2018-03-30T09:00:40.501Z,2396
2018-03-30T09:01:20.881Z,2388
2018-03-30T09:02:01.502Z,2412
2018-03-30T09:02:42.193Z,2472
2018-03-30T09:03:25.127Z,2528
2018-03-30T09:04:06.485Z,2488
2018-03-30T09:04:47.061Z,2472
2018-03-30T09:05:27.565Z,2532
2018-03-30T09:06:08.003Z,2568
2018-03-30T09:06:48.624Z,2616
2018-03-30T09:07:29.352Z,2616
2018-03-30T09:08:09.844Z,2580
2018-03-30T09:08:50.311Z,2592
2018-03-30T09:09:30.641Z,2540
2018-03-30T09:10:11.117Z,2528
2018-03-30T09:10:52.216Z,2544
2018-03-30T09:11:32.739Z,2548
2018-03-30T09:12:13.128Z,2520
2018-03-30T09:12:53.575Z,2424
2018-03-30T09:13:34.064Z,2460
2018-03-30T09:14:14.505Z,2488
2018-03-30T09:14:54.950Z,2484
2018-03-30T09:15:35.807Z,2488
2018-03-30T09:16:16.842Z,2496
2018-03-30T09:16:57.189Z,2484
2018-03-30T09:17:38.413Z,2508
2018-03-30T09:18:18.971Z,2512
2018-03-30T09:18:59.509Z,2488
2018-03-30T09:19:39.964Z,2468
2018-03-30T09:20:20.291Z,2448
2018-03-30T09:21:00.974Z,2408
2018-03-30T09:21:41.408Z,2376
2018-03-30T09:25:36.428Z,2356
2018-03-30T09:26:19.334Z,2376
2018-03-30T09:26:58.417Z,2344
2018-03-30T09:27:38.905Z,2312
2018-03-30T09:28:19.466Z,2280
2018-03-30T09:28:59.909Z,2288
2018-03-30T09:29:41.784Z,2304
2018-03-30T09:30:22.257Z,2320
2018-03-30T09:31:03.897Z,2320
2018-03-30T09:31:43.803Z,2340
2018-03-30T09:32:24.357Z,2340
2018-03-30T09:33:05.130Z,2356
2018-03-30T09:33:45.980Z,2368
2018-03-30T09:34:26.272Z,2360
2018-03-30T09:35:06.851Z,2392
2018-03-30T09:35:48.306Z,2404
2018-03-30T09:36:28.838Z,2404
2018-03-30T09:37:09.487Z,2424
2018-03-30T09:37:50.121Z,2420
2018-03-30T09:38:30.644Z,2456
2018-03-30T09:39:11.057Z,2488
2018-03-30T09:39:51.502Z,2496
2018-03-30T09:40:31.934Z,2412
2018-03-30T09:41:12.625Z,2432
2018-03-30T09:41:53.081Z,2448
2018-03-30T09:42:33.509Z,2436
2018-03-30T09:43:13.880Z,2476
2018-03-30T09:43:54.336Z,2528
2018-03-30T09:44:34.793Z,2540
2018-03-30T09:45:15.143Z,2548
2018-03-30T09:45:55.550Z,2580
2018-03-30T09:46:36.024Z,2604
2018-03-30T09:47:16.407Z,2588
2018-03-30T09:47:56.879Z,2592
2018-03-30T09:48:37.223Z,2648
2018-03-30T09:49:17.796Z,2688
2018-03-30T09:49:58.157Z,2708
2018-03-30T09:50:38.568Z,2704
2018-03-30T09:51:18.946Z,2684
2018-03-30T09:53:19.355Z,2604
2018-03-30T09:54:00.759Z,2508
2018-03-30T09:54:41.949Z,2512
2018-03-30T09:55:22.388Z,2544
2018-03-30T09:56:02.920Z,2560
2018-03-30T09:56:43.941Z,2588
2018-03-30T09:57:24.122Z,2576
2018-03-30T09:58:04.521Z,2564
2018-03-30T09:58:44.968Z,2572
2018-03-30T09:59:25.343Z,2600
2018-03-30T10:00:06.037Z,2600
2018-03-30T10:00:47.029Z,2596
2018-03-30T10:01:27.348Z,2612
2018-03-30T10:02:11.747Z,2644
2018-03-30T10:02:52.151Z,2644
2018-03-30T10:03:32.631Z,2656
2018-03-30T10:04:13.081Z,2712
2018-03-30T10:04:53.486Z,2716
2018-03-30T10:05:33.961Z,2728
2018-03-30T10:44:38.764Z,1932
2018-03-30T10:45:20.516Z,1928
2018-03-30T10:46:00.907Z,1896
2018-03-30T10:46:41.551Z,1876
2018-03-30T10:47:21.883Z,1868
2018-03-30T10:48:02.352Z,1884
2018-03-30T10:48:42.756Z,1884
2018-03-30T10:49:23.325Z,1868
2018-03-30T10:50:04.232Z,1856
2018-03-30T10:50:44.667Z,1844
2018-03-30T10:51:25.238Z,1804
2018-03-30T10:52:05.808Z,1796
2018-03-30T10:52:46.442Z,1788
2018-03-30T10:53:26.968Z,1804
2018-03-30T10:54:07.710Z,1808
2018-03-30T10:54:48.348Z,1788
2018-03-30T10:55:28.690Z,1808
2018-03-30T10:56:09.119Z,1824
2018-03-30T10:58:23.251Z,1748
2018-03-30T10:59:03.648Z,1704
2018-03-30T10:59:44.027Z,1672
2018-03-30T11:00:25.399Z,1656
2018-03-30T11:01:05.556Z,1752
2018-03-30T11:01:45.930Z,1768
2018-03-30T11:02:26.354Z,1752
2018-03-30T11:03:06.869Z,1808
2018-03-30T11:03:47.565Z,1824
2018-03-30T11:04:28.251Z,1844
2018-03-30T11:05:08.710Z,1816
2018-03-30T11:05:52.221Z,1832
2018-03-30T11:06:32.611Z,1868
2018-03-30T11:07:13.018Z,1916